Surface/Precipitation History
07/25/2014 09:10  to  7/26/2014 09:10
Change End Date:
Date/Time
(MDT)
Sf
Temp Chem Water Layer Surface Precipitation
Sf Sub Frz Factor Pct Depth IcePct Cond Salin Type Intens Accum Rate
07/26/2014 08:55 Dry 63.0F 75F - - - - - 40 mhos 3073 None None - -
07/26/2014 08:53 Dry 62.6F 75F - - - - - 40 mhos 3083 None None - -
07/26/2014 08:43 Dry 60.8F 75F - - - - - 40 mhos 3173 None None - -
07/26/2014 08:33 Dry 58.8F 75F - - - - - 40 mhos 3242 None None - -
07/26/2014 08:25 Dry 57.6F 75F - - - - - 40 mhos 3289 None None - -
07/26/2014 08:23 Dry 57.2F 75F - - - - - 40 mhos 3307 None None - -
07/26/2014 08:13 Dry 55.6F 75F - - - - - 40 mhos 3396 None None - -
07/26/2014 08:03 Dry 53.8F 75F - - - - - 40 mhos 3468 None None - -
07/26/2014 07:55 Dry 52.7F 75F - - - - - 40 mhos 3516 None None - -
07/26/2014 07:53 Dry 52.3F 75F - - - - - 40 mhos 3536 None None - -
07/26/2014 07:43 Dry 50.7F 75F - - - - - 40 mhos 3637 None None - -
07/26/2014 07:32 Dry 49.1F 76F - - - - - 40 mhos 3712 None None - -
07/26/2014 07:25 Dry 48.0F 76F - - - - - 40 mhos 3766 None None - -
07/26/2014 07:22 Dry 47.5F 76F - - - - - 40 mhos 3790 None None - -
07/26/2014 07:12 Dry 46.4F 76F - - - - - 40 mhos 3847 None None - -
Date/Time
(MDT)
Sf
Temp Chem Water Layer Surface Precipitation
Sf Sub Frz Factor Pct Depth IcePct Cond Salin Type Intens Accum Rate
07/26/2014 07:02 Dry 45.5F 76F - - - - - 40 mhos 3894 None None - -
07/26/2014 06:56 Dry 45.1F 76F - - - - - 40 mhos 3914 None None - -
07/26/2014 06:52 Dry 45.0F 76F - - - - - 40 mhos 3923 None None - -
07/26/2014 06:42 Dry 44.6F 76F - - - - - 40 mhos 3949 None None - -
07/26/2014 06:32 Dry 44.8F 76F - - - - - 41 mhos 3973 None None - -
07/26/2014 06:25 Dry 44.8F 76F - - - - - 41 mhos 3973 None None - -
07/26/2014 06:22 Dry 44.8F 76F - - - - - 40 mhos 3940 None None - -
07/26/2014 06:12 Dry 45.0F 76F - - - - - 40 mhos 3923 None None - -
07/26/2014 06:02 Dry 45.3F 76F - - - - - 40 mhos 3906 None None - -
07/26/2014 05:55 Dry 45.7F 77F - - - - - 40 mhos 3889 None None - -
07/26/2014 05:52 Dry 45.9F 77F - - - - - 40 mhos 3880 None None - -
07/26/2014 05:42 Dry 46.2F 77F - - - - - 40 mhos 3855 None None - -
07/26/2014 05:32 Dry 46.6F 77F - - - - - 40 mhos 3839 None None - -
07/26/2014 05:26 Dry 46.8F 77F - - - - - 40 mhos 3831 None None - -
07/26/2014 05:22 Dry 46.8F 77F - - - - - 40 mhos 3831 None None - -
Date/Time
(MDT)
Sf
Temp Chem Water Layer Surface Precipitation
Sf Sub Frz Factor Pct Depth IcePct Cond Salin Type Intens Accum Rate
07/26/2014 05:12 Dry 47.3F 77F - - - - - 40 mhos 3806 None None - -
07/26/2014 05:02 Dry 47.7F 77F - - - - - 40 mhos 3782 None None - -
07/26/2014 04:55 Dry 47.8F 77F - - - - - 40 mhos 3774 None None - -
07/26/2014 04:52 Dry 48.0F 77F - - - - - 40 mhos 3766 None None - -
07/26/2014 04:42 Dry 48.2F 77F - - - - - 40 mhos 3758 None None - -
07/26/2014 04:32 Dry 48.7F 77F - - - - - 40 mhos 3704 None None - -
07/26/2014 04:26 Dry 48.9F 78F - - - - - 40 mhos 3720 None None - -
07/26/2014 04:22 Dry 49.1F 78F - - - - - 40 mhos 3712 None None - -
07/26/2014 04:12 Dry 49.1F 78F - - - - - 40 mhos 3712 None None - -
07/26/2014 04:01 Dry 49.3F 78F - - - - - 40 mhos 3704 None None - -
07/26/2014 03:55 Dry 49.5F 78F - - - - - 40 mhos 3697 None None - -
07/26/2014 03:51 Dry 49.6F 78F - - - - - 40 mhos 3689 None None - -
07/26/2014 03:41 Dry 50.0F 78F - - - - - 40 mhos 3644 None None - -
07/26/2014 03:31 Dry 50.4F 78F - - - - - 40 mhos 3622 None None - -
07/26/2014 03:26 Dry 50.5F 78F - - - - - 40 mhos 3615 None None - -
Date/Time
(MDT)
Sf
Temp Chem Water Layer Surface Precipitation
Sf Sub Frz Factor Pct Depth IcePct Cond Salin Type Intens Accum Rate
07/26/2014 03:21 Dry 50.9F 78F - - - - - 40 mhos 3600 None None - -
07/26/2014 03:11 Dry 51.3F 78F - - - - - 40 mhos 3586 None None - -
07/26/2014 03:01 Dry 51.4F 78F - - - - - 40 mhos 3572 None None - -
07/26/2014 02:55 Dry 51.8F 78F - - - - - 40 mhos 3557 None None - -
07/26/2014 02:51 Dry 52.2F 78F - - - - - 40 mhos 3543 None None - -
07/26/2014 02:41 Dry 52.5F 78F - - - - - 40 mhos 3529 None None - -
07/26/2014 02:31 Dry 52.9F 78F - - - - - 40 mhos 3509 None None - -
07/26/2014 02:26 Dry 53.1F 78F - - - - - 40 mhos 3502 None None - -
07/26/2014 02:21 Dry 53.4F 79F - - - - - 40 mhos 3488 None None - -
07/26/2014 02:11 Dry 53.8F 79F - - - - - 40 mhos 3475 None None - -
07/26/2014 02:01 Dry 54.3F 79F - - - - - 40 mhos 3448 None None - -
07/26/2014 01:56 Dry 54.5F 79F - - - - - 40 mhos 3414 None None - -
07/26/2014 01:51 Dry 54.9F 79F - - - - - 40 mhos 3401 None None - -
07/26/2014 01:41 Dry 55.4F 79F - - - - - 40 mhos 3375 None None - -
07/26/2014 01:31 Dry 55.8F 79F - - - - - 40 mhos 3363 None None - -
Date/Time
(MDT)
Sf
Temp Chem Water Layer Surface Precipitation
Sf Sub Frz Factor Pct Depth IcePct Cond Salin Type Intens Accum Rate
07/26/2014 01:26 Dry 56.1F 79F - - - - - 40 mhos 3350 None None - -
07/26/2014 01:21 Dry 56.3F 79F - - - - - 40 mhos 3338 None None - -
07/26/2014 01:11 Dry 56.8F 79F - - - - - 40 mhos 3319 None None - -
07/26/2014 01:01 Dry 57.4F 79F - - - - - 40 mhos 3295 None None - -
07/26/2014 00:56 Dry 57.7F 79F - - - - - 40 mhos 3283 None None - -
07/26/2014 00:51 Dry 58.1F 79F - - - - - 40 mhos 3245 None None - -
07/26/2014 00:40 Dry 58.5F 79F - - - - - 40 mhos 3233 None None - -
07/26/2014 00:30 Dry 59.2F 79F - - - - - 40 mhos 3204 None None - -
07/26/2014 00:26 Dry 59.4F 79F - - - - - 40 mhos 3199 None None - -
07/26/2014 00:20 Dry 59.5F 79F - - - - - 40 mhos 3193 None None - -
07/26/2014 00:10 Dry 60.3F 79F - - - - - 40 mhos 3165 None None - -
07/26/2014 00:00 Dry 61.0F 79F - - - - - 40 mhos 3137 None None - -
07/26/2014 00:00 Dry 61.0F 79F - - - - - 40 mhos 3137 - - - -
07/25/2014 23:50 Dry 61.5F 79F - - - - - 39 mhos 3096 None None - -
07/25/2014 23:40 Dry 62.1F 79F - - - - - 39 mhos 3080 - - - -
Date/Time
(MDT)
Sf
Temp Chem Water Layer Surface Precipitation
Sf Sub Frz Factor Pct Depth IcePct Cond Salin Type Intens Accum Rate
07/25/2014 23:30 Dry 62.6F 79F - - - - - 39 mhos 3059 - - - -
07/25/2014 23:25 Dry 63.0F 79F - - - - - 39 mhos 3049 None None - -
07/25/2014 23:20 Dry 63.3F 79F - - - - - 39 mhos 3036 None None - -
07/25/2014 23:10 Dry 64.0F 79F - - - - - 39 mhos 2990 None None - -
07/25/2014 23:00 Dry 64.6F 79F - - - - - 39 mhos 2970 None None - -
07/25/2014 22:56 Dry 65.1F 79F - - - - - 39 mhos 2955 None None - -
07/25/2014 22:50 Dry 65.5F 79F - - - - - 39 mhos 2945 None None - -
07/25/2014 22:40 Dry 66.2F 79F - - - - - 39 mhos 2899 None None - -
07/25/2014 22:30 Dry 66.7F 79F - - - - - 39 mhos 2883 None None - -
07/25/2014 22:25 Dry 67.3F 79F - - - - - 39 mhos 2866 None None - -
07/25/2014 22:20 Dry 67.8F 79F - - - - - 39 mhos 2852 None None - -
07/25/2014 22:10 Dry 68.4F 79F - - - - - 39 mhos 2834 None None - -
07/25/2014 22:00 Dry 69.4F 79F - - - - - 38 mhos 2782 None None - -
07/25/2014 21:55 Dry 69.6F 79F - - - - - 38 mhos 2777 None None - -
07/25/2014 21:50 Dry 70.3F 79F - - - - - 38 mhos 2756 None None - -
Date/Time
(MDT)
Sf
Temp Chem Water Layer Surface Precipitation
Sf Sub Frz Factor Pct Depth IcePct Cond Salin Type Intens Accum Rate
07/25/2014 21:40 Dry 71.1F 79F - - - - - 38 mhos 2714 None None - -
07/25/2014 21:30 Dry 72.0F 79F - - - - - 38 mhos 2693 None None - -
07/25/2014 21:26 Dry 72.1F 79F - - - - - 38 mhos 2687 None None - -
07/25/2014 21:19 Dry 72.7F 79F - - - - - 38 mhos 2673 None None - -
07/25/2014 21:09 Dry 73.4F 79F - - - - - 38 mhos 2637 None None - -
07/25/2014 20:59 Dry 74.7F 78F - - - - - 38 mhos 2582 None None - -
07/25/2014 20:56 Dry 75.2F 78F - - - - - 38 mhos 2571 None None - -
07/25/2014 20:49 Dry 76.5F 78F - - - - - 38 mhos 2541 None None - -
07/25/2014 20:39 Dry 78.1F 78F - - - - - 37 mhos 2483 None None - -
07/25/2014 20:29 Dry 79.7F 78F - - - - - 37 mhos 2427 None None - -
07/25/2014 20:26 Dry 80.4F 78F - - - - - 37 mhos 2414 None None - -
07/25/2014 20:19 Dry 81.5F 78F - - - - - 37 mhos 2373 None None - -
07/25/2014 20:09 Dry 83.1F 78F - - - - - 37 mhos 2321 None None - -
07/25/2014 19:59 Dry 84.7F 78F - - - - - 36 mhos 2271 None None - -
07/25/2014 19:56 Dry 85.3F 78F - - - - - 36 mhos 2262 None None - -
Date/Time
(MDT)
Sf
Temp Chem Water Layer Surface Precipitation
Sf Sub Frz Factor Pct Depth IcePct Cond Salin Type Intens Accum Rate
07/25/2014 19:49 Dry 86.4F 78F - - - - - 36 mhos 2226 None None - -
07/25/2014 19:39 Dry 87.8F 78F - - - - - 36 mhos 2185 None None - -
07/25/2014 19:29 Dry 89.1F 78F - - - - - 36 mhos 2145 None None - -
07/25/2014 19:26 Dry 89.6F 78F - - - - - 36 mhos 2137 None None - -
07/25/2014 19:19 Dry 90.7F 77F - - - - - 36 mhos 2104 None None - -
07/25/2014 19:09 Dry 91.8F 77F - - - - - 36 mhos 2083 None None - -
07/25/2014 18:59 Dry 93.0F 77F - - - - - 35 mhos 2049 None None - -
07/25/2014 18:56 Dry 93.6F 77F - - - - - 35 mhos 2025 None None - -
07/25/2014 18:49 Dry 94.6F 77F - - - - - 35 mhos 2009 None None - -
07/25/2014 18:39 Dry 95.7F 77F - - - - - 35 mhos 1980 None None - -
07/25/2014 18:29 Dry 96.8F 77F - - - - - 35 mhos 1950 None None - -
07/25/2014 18:25 Dry 97.0F 77F - - - - - 35 mhos 1946 None None - -
07/25/2014 18:19 Dry 97.7F 77F - - - - - 34 mhos 1921 None None - -
07/25/2014 18:09 Dry 98.2F 77F - - - - - 34 mhos 1915 None None - -
07/25/2014 17:58 Dry 98.8F 76F - - - - - 34 mhos 1893 None None - -
Date/Time
(MDT)
Sf
Temp Chem Water Layer Surface Precipitation
Sf Sub Frz Factor Pct Depth IcePct Cond Salin Type Intens Accum Rate
07/25/2014 17:56 Dry 99.5F 76F - - - - - 34 mhos 1884 None None - -
07/25/2014 17:48 Dry 99.7F 76F - - - - - 34 mhos 1882 None None - -
07/25/2014 17:38 Dry 99.7F 76F - - - - - 34 mhos 1868 None None - -
07/25/2014 17:28 Dry 100.8F 76F - - - - - 34 mhos 1852 None None - -
07/25/2014 17:18 Dry 101.7F 76F - - - - - 34 mhos 1830 None None - -
07/25/2014 17:08 Dry 102.9F 76F - - - - - 34 mhos 1802 None None - -
07/25/2014 16:58 Dry 103.8F 76F - - - - - 33 mhos 1778 None None - -
07/25/2014 16:55 Dry 104.0F 76F - - - - - 33 mhos 1776 None None - -
07/25/2014 16:48 Dry 104.7F 76F - - - - - 33 mhos 1755 None None - -
07/25/2014 16:38 Dry 105.3F 75F - - - - - 33 mhos 1747 None None - -
07/25/2014 16:28 Dry 106.9F 75F - - - - - 33 mhos 1706 None None - -
07/25/2014 16:25 Dry 107.1F 75F - - - - - 33 mhos 1704 None None - -
07/25/2014 16:18 Dry 107.6F 75F - - - - - 33 mhos 1698 None None - -
07/25/2014 16:08 Dry 108.3F 75F - - - - - 33 mhos 1678 None None - -
07/25/2014 15:58 Dry 108.9F 75F - - - - - 33 mhos 1672 None None - -
Date/Time
(MDT)
Sf
Temp Chem Water Layer Surface Precipitation
Sf Sub Frz Factor Pct Depth IcePct Cond Salin Type Intens Accum Rate
07/25/2014 15:56 Dry 108.0F 75F - - - - - 33 mhos 1682 None None - -
07/25/2014 15:48 Dry 108.3F 75F - - - - - 33 mhos 1678 None None - -
07/25/2014 15:38 Dry 108.0F 75F - - - - - 33 mhos 1682 None None - -
07/25/2014 15:28 Dry 107.4F 75F - - - - - 33 mhos 1700 None None - -
07/25/2014 15:26 Dry 107.4F 75F - - - - - 33 mhos 1700 None None - -
07/25/2014 15:18 Dry 108.9F 75F - - - - - 33 mhos 1672 None None - -
07/25/2014 15:08 Dry 107.6F 74F - - - - - 33 mhos 1685 None None - -
07/25/2014 14:58 Dry 108.0F 74F - - - - - 33 mhos 1692 None None - -
07/25/2014 14:55 Dry 107.6F 74F - - - - - 33 mhos 1698 None None - -
07/25/2014 14:48 Dry 108.1F 74F - - - - - 33 mhos 1680 None None - -
07/25/2014 14:38 Dry 107.4F 74F - - - - - 33 mhos 1689 None None - -
07/25/2014 14:28 Dry 108.1F 74F - - - - - 33 mhos 1680 None None - -
07/25/2014 14:25 Dry 107.6F 74F - - - - - 33 mhos 1687 None None - -
07/25/2014 14:18 Dry 108.1F 74F - - - - - 33 mhos 1691 None None - -
07/25/2014 14:07 Dry 106.9F 74F - - - - - 33 mhos 1716 None None - -
Date/Time
(MDT)
Sf
Temp Chem Water Layer Surface Precipitation
Sf Sub Frz Factor Pct Depth IcePct Cond Salin Type Intens Accum Rate
07/25/2014 13:57 Dry 106.3F 74F - - - - - 33 mhos 1735 None None - -
07/25/2014 13:56 Dry 106.2F 74F - - - - - 33 mhos 1726 None None - -
07/25/2014 13:47 Dry 105.8F 74F - - - - - 33 mhos 1741 None None - -
07/25/2014 13:37 Dry 105.6F 74F - - - - - 33 mhos 1743 None None - -
07/25/2014 13:27 Dry 104.5F 74F - - - - - 33 mhos 1768 None None - -
07/25/2014 13:17 Dry 103.8F 74F - - - - - 34 mhos 1789 None None - -
07/25/2014 13:07 Dry 102.9F 74F - - - - - 34 mhos 1813 None None - -
07/25/2014 12:57 Dry 102.0F 74F - - - - - 34 mhos 1835 None None - -
07/25/2014 12:56 Dry 101.8F 74F - - - - - 34 mhos 1837 None None - -
07/25/2014 12:47 Dry 100.4F 74F - - - - - 34 mhos 1871 None None - -
07/25/2014 12:37 Dry 99.3F 74F - - - - - 34 mhos 1899 None None - -
07/25/2014 12:27 Dry 97.3F 74F - - - - - 35 mhos 1941 None None - -
07/25/2014 12:17 Dry 95.9F 74F - - - - - 35 mhos 1975 None None - -
07/25/2014 12:07 Dry 95.0F 74F - - - - - 35 mhos 2002 None None - -
07/25/2014 11:57 Dry 94.6F 74F - - - - - 35 mhos 2009 None None - -
Date/Time
(MDT)
Sf
Temp Chem Water Layer Surface Precipitation
Sf Sub Frz Factor Pct Depth IcePct Cond Salin Type Intens Accum Rate
07/25/2014 11:47 Dry 93.7F 74F - - - - - 35 mhos 2036 None None - -
07/25/2014 11:37 Dry 93.0F 74F - - - - - 36 mhos 2063 None None - -
07/25/2014 11:27 Dry 91.6F 74F - - - - - 36 mhos 2102 None None - -
07/25/2014 11:25 Dry 91.6F 74F - - - - - 36 mhos 2100 None None - -
07/25/2014 11:17 Dry 90.3F 74F - - - - - 36 mhos 2138 None None - -
07/25/2014 11:07 Dry 89.8F 74F - - - - - 36 mhos 2161 None None - -
07/25/2014 10:55 Dry 88.5F 74F - - - - - 36 mhos 2201 None None - -
07/25/2014 10:47 Dry 86.7F 74F - - - - - 37 mhos 2249 None None - -
07/25/2014 10:37 Dry 84.7F 74F - - - - - 37 mhos 2304 None None - -
07/25/2014 10:27 Dry 82.8F 74F - - - - - 37 mhos 2364 None None - -
07/25/2014 10:25 Dry 82.4F 74F - - - - - 37 mhos 2371 None None - -
07/25/2014 10:16 Dry 80.6F 74F - - - - - 38 mhos 2445 None None - -
07/25/2014 10:06 Dry 78.6F 74F - - - - - 38 mhos 2505 None None - -
07/25/2014 09:56 Dry 76.5F 75F - - - - - 38 mhos 2598 None None - -
07/25/2014 09:55 Dry 76.3F 75F - - - - - 38 mhos 2602 None None - -
Date/Time
(MDT)
Sf
Temp Chem Water Layer Surface Precipitation
Sf Sub Frz Factor Pct Depth IcePct Cond Salin Type Intens Accum Rate
07/25/2014 09:46 Dry 74.5F 75F - - - - - 39 mhos 2669 None None - -
07/25/2014 09:36 Dry 72.3F 75F - - - - - 38 mhos 2705 None None - -
07/25/2014 09:26 Dry 70.2F 75F - - - - - 39 mhos 2781 None None - -
07/25/2014 09:25 Dry 70.2F 75F - - - - - 39 mhos 2785 None None - -
07/25/2014 09:16 Dry 68.4F 75F - - - - - 39 mhos 2856 None None - -
Change End Date:
Copyright © 1998-2005 Surface Systems, Inc.
All Rights Reserved
Send comments about the data to:
SCAN Web ® is a registered trademark of Surface Systems, Inc.
SCAN Web Version 5.6